Impacts TAF Board
For situational awareness. Not to be used for flight planning purposes.
IDs:

KFLL - Ft Lauderdale-Hollyw, FL, US

Issued at 0529 UTC 03 Aug 2021
Updated at 0755 UTC 03 Aug 2021
Potential Impact None Slight Moderate High
Time0753Z 03/08Z 03/09Z 03/10Z 03/11Z 03/12Z 03/13Z 03/14Z 03/15Z 03/16Z 03/17Z 03/18Z 03/19Z 03/20Z>>
Type OBS PRVL PRVL PRVL PRVL PRVL PRVL PRVL PRVL
  [PRB30]  
PRVL
  [PRB30]  
PRVL
  [PRB30]  
PRVL PRVL PRVL
VIS 10 >6 >6 >6 >6 >6 >6 >6 >6
  [3]  
>6
  [3]  
>6
  [3]  
>6 >6 >6
CIG 95 120 120 120 120 50 50 50 50
  [50]  
50
  [50]  
50
  [50]  
50 50 50
Cover BKN BKN BKN BKN BKN BKN BKN BKN BKN
  [BKN]  
BKN
  [BKN]  
BKN
  [BKN]  
BKN BKN BKN
FltCat VFR VFR VFR VFR VFR VFR VFR VFR VFR
  [MVFR]  
VFR
  [MVFR]  
VFR
  [MVFR]  
VFR VFR VFR
WX -- VCSH VCSH VCSH VCSH VCSH VCSH VCSH VCSH
  [TSRA]  
VCSH
  [TSRA]  
VCSH
  [TSRA]  
VCTS VCTS VCTS
WDir 190 VRB VRB VRB VRB 220 220 220 220
[220]
220
[220]
220
[220]
170 170 170
WSpd 4 5 5 5 5 5 5 5 5
  [5]  
5
  [5]  
5
  [5]  
10 10 10
WGst -- -- -- -- -- -- -- -- --
  [--]  
--
  [--]  
--
  [--]  
-- -- --
Raw TAF
KFLL 030529Z 0306/0412 VRB05KT P6SM VCSH FEW020 SCT050 BKN120
  FM031200 22005KT P6SM VCSH SCT025 BKN050
  PROB30 0315/0318 3SM TSRA SCT025CB BKN050
  FM031800 17010KT P6SM VCTS SCT025CB BKN050
  FM040000 VRB05KT P6SM VCSH FEW025 SCT080 BKN120


Raw METAR
KFLL 030753Z 19004KT 10SM SCT035 BKN095 BKN120 BKN250 28/25 A2999
KFLL 030718Z 00000KT 10SM SCT024 BKN030 BKN095 OVC250 28/25 A3000
KFLL 030653Z 00000KT 10SM BKN024 BKN090 OVC250 28/25 A3000
KFLL 030647Z 00000KT 10SM BKN025 BKN090 OVC250 28/25 A3000
KFLL 030553Z 21003KT 10SM FEW020 BKN090 BKN120 OVC250 28/26 A3001
KFLL 030453Z 00000KT 10SM FEW020 BKN100 OVC250 28/26 A3004

METAR Board
Radar Display
Forecast Discussion
For situational awareness. Not to be used for flight planning purposes.